createdAt,value
2023-05-19T00:01:21.760Z,14.00
2023-05-19T00:04:25.100Z,7.80
2023-05-19T00:07:32.808Z,13.70
2023-05-19T00:10:36.689Z,14.10
2023-05-19T00:13:39.850Z,15.90
2023-05-19T00:16:43.406Z,16.50
2023-05-19T00:19:46.809Z,15.00
2023-05-19T00:22:51.213Z,15.80
2023-05-19T00:25:54.270Z,11.10
2023-05-19T00:28:57.458Z,14.20
2023-05-19T00:32:00.553Z,16.20
2023-05-19T00:35:03.662Z,15.40
2023-05-19T00:38:06.949Z,16.30
2023-05-19T00:41:10.148Z,15.50
2023-05-19T00:44:13.257Z,14.10
2023-05-19T00:47:16.934Z,14.20
2023-05-19T00:50:20.030Z,13.10
2023-05-19T00:53:24.724Z,19.80
2023-05-19T00:56:27.879Z,22.60
2023-05-19T00:59:30.999Z,17.90
2023-05-19T01:02:34.990Z,18.70
2023-05-19T01:05:40.303Z,17.00
2023-05-19T01:08:43.602Z,19.20
2023-05-19T01:11:46.595Z,18.80
2023-05-19T01:14:50.364Z,18.00
2023-05-19T01:18:11.432Z,16.80
2023-05-19T01:21:36.981Z,18.90
2023-05-19T01:24:58.793Z,14.20
2023-05-19T01:28:34.519Z,21.60
2023-05-19T01:31:40.176Z,17.70
2023-05-19T01:34:47.264Z,14.80
2023-05-19T01:37:55.203Z,11.60
2023-05-19T01:41:04.454Z,10.50
2023-05-19T01:44:10.076Z,18.00
2023-05-19T01:47:19.288Z,16.70
2023-05-19T01:50:23.873Z,11.80
2023-05-19T01:53:27.159Z,16.30
2023-05-19T01:56:50.349Z,15.20
2023-05-19T02:00:06.618Z,14.40
2023-05-19T02:03:31.009Z,15.70
2023-05-19T02:06:50.131Z,14.50
2023-05-19T02:10:06.515Z,14.20
2023-05-19T02:13:21.669Z,15.00
2023-05-19T02:16:30.411Z,13.20
2023-05-19T02:19:42.604Z,13.00
2023-05-19T02:22:46.071Z,13.90
2023-05-19T02:25:57.050Z,16.00
2023-05-19T02:29:02.692Z,16.70
2023-05-19T02:32:08.819Z,16.70
2023-05-19T02:35:13.539Z,14.10
2023-05-19T02:38:26.575Z,17.70
2023-05-19T02:41:30.852Z,18.80
2023-05-19T02:44:34.244Z,16.60
2023-05-19T02:47:39.102Z,16.70
2023-05-19T02:50:46.929Z,17.50
2023-05-19T02:53:50.559Z,10.40
2023-05-19T02:56:54.182Z,16.40
2023-05-19T02:59:58.368Z,17.00
2023-05-19T03:03:03.488Z,15.80
2023-05-19T03:06:08.870Z,17.60
2023-05-19T03:09:13.027Z,16.30
2023-05-19T03:12:18.616Z,18.70
2023-05-19T03:18:29.378Z,18.10
2023-05-19T03:21:34.682Z,18.90
2023-05-19T03:24:37.964Z,20.60
2023-05-19T03:27:43.648Z,18.90
2023-05-19T03:30:52.293Z,19.80
2023-05-19T03:33:57.926Z,21.50
2023-05-19T03:37:01.689Z,19.70
2023-05-19T03:40:07.069Z,19.20
2023-05-19T03:43:10.929Z,23.80
2023-05-19T03:46:14.961Z,21.80
2023-05-19T03:49:19.519Z,20.70
2023-05-19T03:52:26.175Z,20.10
2023-05-19T03:55:31.415Z,18.70
2023-05-19T03:58:37.137Z,19.80
2023-05-19T04:01:42.083Z,21.10
2023-05-19T04:04:46.392Z,17.00
2023-05-19T04:07:49.999Z,17.80
2023-05-19T04:10:54.265Z,20.90
2023-05-19T04:13:57.426Z,19.30
2023-05-19T04:17:00.910Z,20.40
2023-05-19T04:20:06.476Z,16.70
2023-05-19T04:23:12.607Z,19.50
2023-05-19T04:26:18.093Z,18.80
2023-05-19T04:29:24.332Z,17.90
2023-05-19T04:32:30.473Z,18.20
2023-05-19T04:36:06.203Z,16.60
2023-05-19T04:39:30.509Z,16.30
2023-05-19T04:42:47.652Z,15.60
2023-05-19T04:45:51.932Z,15.40
2023-05-19T04:48:57.815Z,17.30
2023-05-19T04:52:01.502Z,13.20
2023-05-19T04:55:05.625Z,10.50
2023-05-19T04:58:09.496Z,12.90
2023-05-19T05:01:33.281Z,10.60
2023-05-19T05:04:36.923Z,15.30
2023-05-19T05:07:41.661Z,12.40
2023-05-19T05:10:54.165Z,12.60
2023-05-19T05:13:59.902Z,12.50
2023-05-19T05:17:03.491Z,14.40
2023-05-19T05:20:08.858Z,11.80
2023-05-19T05:23:14.840Z,13.60
2023-05-19T05:26:25.206Z,13.10
2023-05-19T05:29:28.270Z,13.10
2023-05-19T05:32:32.353Z,10.70
2023-05-19T05:35:35.393Z,12.00
2023-05-19T05:38:39.418Z,11.40
2023-05-19T05:41:43.058Z,11.10
2023-05-19T05:44:46.670Z,10.80
2023-05-19T05:47:51.035Z,9.90
2023-05-19T05:50:56.917Z,10.50
2023-05-19T05:54:01.169Z,11.40
2023-05-19T05:57:04.684Z,9.10
2023-05-19T06:00:16.134Z,9.10
2023-05-19T06:03:24.600Z,9.50
2023-05-19T06:06:28.545Z,10.50
2023-05-19T06:09:33.024Z,9.00
2023-05-19T06:12:41.166Z,9.30
2023-05-19T06:15:44.913Z,9.10
2023-05-19T06:18:48.260Z,8.40
2023-05-19T06:21:52.447Z,9.80
2023-05-19T06:24:58.070Z,9.50
2023-05-19T06:28:01.311Z,7.60
2023-05-19T06:31:04.626Z,7.50
2023-05-19T06:34:10.843Z,6.90
2023-05-19T06:37:19.748Z,9.10
2023-05-19T06:40:23.332Z,8.20
2023-05-19T06:43:27.187Z,8.70
2023-05-19T06:46:30.424Z,8.20
2023-05-19T06:49:33.742Z,8.40
2023-05-19T06:52:39.305Z,7.80
2023-05-19T06:55:58.217Z,7.70
2023-05-19T06:59:03.230Z,8.00
2023-05-19T07:02:07.280Z,6.60
2023-05-19T07:05:15.601Z,6.50
2023-05-19T07:08:37.479Z,7.80
2023-05-19T07:11:41.725Z,7.70
2023-05-19T07:14:45.802Z,7.00
2023-05-19T07:17:51.722Z,7.40
2023-05-19T07:20:55.920Z,8.10
2023-05-19T07:23:59.445Z,9.70
2023-05-19T07:27:04.417Z,7.50
2023-05-19T07:30:09.043Z,7.90
2023-05-19T07:33:12.494Z,7.50
2023-05-19T07:36:16.010Z,6.70
2023-05-19T07:39:19.555Z,6.50
2023-05-19T07:42:32.103Z,8.00
2023-05-19T07:45:36.436Z,7.40
2023-05-19T07:48:39.534Z,7.60
2023-05-19T07:51:43.131Z,6.50
2023-05-19T07:54:48.606Z,7.30
2023-05-19T07:57:53.160Z,7.20
2023-05-19T08:01:00.835Z,7.10
2023-05-19T08:04:04.008Z,5.80
2023-05-19T08:07:07.458Z,7.20
2023-05-19T08:10:11.133Z,7.40
2023-05-19T08:13:15.016Z,7.40
2023-05-19T08:16:18.380Z,7.00
2023-05-19T08:19:22.269Z,7.70
2023-05-19T08:22:26.143Z,6.40
2023-05-19T08:25:29.608Z,6.90
2023-05-19T08:28:32.803Z,6.60
2023-05-19T08:31:36.639Z,6.90
2023-05-19T08:34:39.886Z,5.80
2023-05-19T08:37:43.850Z,4.50
2023-05-19T08:40:48.771Z,5.90
2023-05-19T08:43:52.006Z,6.00
2023-05-19T08:46:58.299Z,5.60
2023-05-19T08:50:08.669Z,5.10
2023-05-19T08:56:36.376Z,5.60
2023-05-19T08:59:41.598Z,4.90
2023-05-19T09:02:59.690Z,8.00
2023-05-19T09:06:14.082Z,5.50
2023-05-19T09:09:17.582Z,6.20
2023-05-19T09:12:21.274Z,7.60
2023-05-19T09:15:28.749Z,5.40
2023-05-19T09:18:32.350Z,4.80
2023-05-19T09:21:36.448Z,6.10
2023-05-19T09:24:40.915Z,5.40
2023-05-19T09:27:44.330Z,5.30
2023-05-19T09:30:47.402Z,5.80
2023-05-19T09:33:54.358Z,6.20
2023-05-19T09:37:00.069Z,6.40
2023-05-19T09:40:05.984Z,6.70
2023-05-19T09:43:11.024Z,5.60
2023-05-19T09:46:16.057Z,5.00
2023-05-19T09:49:24.195Z,5.50
2023-05-19T09:52:28.495Z,5.90
2023-05-19T09:55:34.025Z,5.60
2023-05-19T09:58:38.257Z,5.60
2023-05-19T10:01:46.571Z,5.60
2023-05-19T10:04:51.331Z,5.50
2023-05-19T10:07:55.972Z,5.80
2023-05-19T10:11:00.276Z,5.00
2023-05-19T10:14:04.771Z,5.60
2023-05-19T10:17:10.087Z,6.00
2023-05-19T10:20:16.159Z,5.90
2023-05-19T10:23:19.850Z,4.60
2023-05-19T10:26:25.327Z,5.30
2023-05-19T10:29:34.967Z,6.50
2023-05-19T10:32:40.618Z,6.90
2023-05-19T10:36:14.470Z,5.90
2023-05-19T10:39:27.960Z,6.60
2023-05-19T10:42:42.162Z,5.90
2023-05-19T10:45:49.735Z,6.90
2023-05-19T10:48:52.869Z,8.00
2023-05-19T10:51:58.324Z,6.90
2023-05-19T10:58:04.732Z,6.60
2023-05-19T11:01:18.715Z,7.60
2023-05-19T11:04:41.309Z,7.00
2023-05-19T11:08:04.749Z,7.30
2023-05-19T11:14:24.221Z,6.60
2023-05-19T11:17:27.567Z,7.10
2023-05-19T11:20:35.263Z,6.30
2023-05-19T11:23:40.780Z,6.30
2023-05-19T11:26:43.950Z,7.80
2023-05-19T11:29:48.620Z,7.90
2023-05-19T11:32:52.585Z,7.40
2023-05-19T11:36:00.430Z,7.30
2023-05-19T11:39:06.214Z,8.60
2023-05-19T11:42:11.013Z,6.40
2023-05-19T11:45:14.873Z,7.40
2023-05-19T11:48:21.817Z,7.40
2023-05-19T11:51:25.168Z,6.90
2023-05-19T11:54:33.827Z,7.40
2023-05-19T11:57:38.437Z,7.30
2023-05-19T12:00:43.215Z,7.50
2023-05-19T12:03:46.747Z,8.60
2023-05-19T12:06:50.146Z,8.60
2023-05-19T12:09:55.571Z,7.80
2023-05-19T12:12:59.969Z,8.10
2023-05-19T12:16:05.458Z,8.10
2023-05-19T12:19:08.824Z,9.60
2023-05-19T12:22:12.955Z,8.30
2023-05-19T12:25:17.108Z,8.40
2023-05-19T12:28:20.286Z,8.20
2023-05-19T12:31:24.142Z,8.40
2023-05-19T12:34:27.183Z,8.80
2023-05-19T12:37:30.382Z,9.90
2023-05-19T12:40:35.311Z,8.40
2023-05-19T12:43:39.807Z,9.20
2023-05-19T12:46:44.750Z,8.40
2023-05-19T12:50:00.360Z,8.50
2023-05-19T12:53:03.619Z,8.10
2023-05-19T12:56:14.726Z,8.20
2023-05-19T13:03:00.741Z,7.80
2023-05-19T13:06:04.070Z,9.10
2023-05-19T13:09:07.413Z,8.80
2023-05-19T13:12:10.323Z,8.80
2023-05-19T13:15:13.259Z,9.70
2023-05-19T13:18:16.343Z,8.00
2023-05-19T13:21:19.571Z,9.10
2023-05-19T13:24:22.668Z,7.70
2023-05-19T13:27:25.596Z,8.60
2023-05-19T13:30:28.661Z,9.10
2023-05-19T13:33:32.292Z,8.70
2023-05-19T13:36:36.857Z,8.40
2023-05-19T13:39:40.637Z,12.00
2023-05-19T13:42:43.892Z,16.30
2023-05-19T13:45:46.974Z,12.20
2023-05-19T13:48:49.854Z,9.20
2023-05-19T13:51:57.318Z,8.80
2023-05-19T13:55:00.227Z,8.50
2023-05-19T13:58:03.782Z,8.20
2023-05-19T14:01:06.682Z,9.20
2023-05-19T14:04:10.711Z,10.50
2023-05-19T14:07:13.903Z,9.30
2023-05-19T14:10:16.818Z,8.30
2023-05-19T14:13:32.647Z,9.40
2023-05-19T14:16:38.359Z,9.00
2023-05-19T14:19:41.378Z,9.40
2023-05-19T14:22:44.316Z,9.90
2023-05-19T14:25:47.232Z,9.50
2023-05-19T14:28:50.131Z,8.30
2023-05-19T14:31:53.249Z,9.80
2023-05-19T14:34:56.376Z,10.50
2023-05-19T14:37:59.287Z,10.60
2023-05-19T14:41:02.936Z,12.50
2023-05-19T14:44:06.122Z,11.40
2023-05-19T14:47:11.407Z,10.80
2023-05-19T14:50:14.571Z,10.30
2023-05-19T14:53:17.587Z,11.50
2023-05-19T14:56:22.154Z,11.10
2023-05-19T14:59:25.190Z,11.80
2023-05-19T15:02:29.689Z,13.80
2023-05-19T15:05:32.877Z,14.30
2023-05-19T15:08:37.868Z,13.70
2023-05-19T15:11:40.981Z,11.40
2023-05-19T15:14:43.854Z,9.80
2023-05-19T15:17:48.031Z,11.50
2023-05-19T15:20:50.938Z,12.50
2023-05-19T15:23:53.945Z,12.30
2023-05-19T15:26:56.838Z,12.80
2023-05-19T15:29:59.744Z,12.30
2023-05-19T15:33:02.678Z,12.30
2023-05-19T15:36:06.007Z,12.80
2023-05-19T15:39:09.884Z,12.80
2023-05-19T15:42:12.808Z,12.50
2023-05-19T15:45:15.739Z,12.80
2023-05-19T15:48:18.664Z,14.30
2023-05-19T15:51:21.930Z,14.50
2023-05-19T15:54:25.650Z,13.50
2023-05-19T15:57:28.958Z,13.50
2023-05-19T16:00:32.043Z,12.30
2023-05-19T16:03:35.229Z,14.00
2023-05-19T16:06:38.295Z,13.30
2023-05-19T16:09:41.134Z,14.20
2023-05-19T16:12:44.072Z,14.10
2023-05-19T16:15:47.273Z,13.40
2023-05-19T16:18:50.646Z,12.60
2023-05-19T16:21:53.668Z,15.20
2023-05-19T16:24:56.556Z,16.80
2023-05-19T16:27:59.576Z,15.60
2023-05-19T16:31:02.887Z,14.20
2023-05-19T16:34:05.757Z,14.40
2023-05-19T16:37:08.767Z,17.10
2023-05-19T16:40:12.102Z,15.90
2023-05-19T16:43:14.983Z,14.00
2023-05-19T16:46:17.879Z,15.10
2023-05-19T16:49:20.964Z,17.00
2023-05-19T16:52:24.034Z,13.90
2023-05-19T16:55:27.123Z,17.10
2023-05-19T16:58:31.021Z,14.10
2023-05-19T17:01:34.158Z,15.70
2023-05-19T17:04:37.046Z,16.80
2023-05-19T17:07:39.908Z,17.20
2023-05-19T17:10:42.762Z,18.50
2023-05-19T17:13:46.457Z,16.30
2023-05-19T17:16:49.575Z,16.50
2023-05-19T17:19:52.602Z,17.50
2023-05-19T17:22:55.483Z,16.00
2023-05-19T17:26:02.083Z,15.70
2023-05-19T17:29:06.032Z,18.60
2023-05-19T17:32:09.084Z,20.60
2023-05-19T17:35:12.088Z,19.90
2023-05-19T17:38:15.129Z,20.60
2023-05-19T17:41:18.048Z,19.50
2023-05-19T17:44:23.202Z,23.50
2023-05-19T17:47:26.362Z,23.40
2023-05-19T17:50:29.241Z,20.50
2023-05-19T17:53:32.385Z,19.50
2023-05-19T17:56:41.593Z,19.50
2023-05-19T17:59:45.080Z,21.20
2023-05-19T18:02:48.441Z,22.30
2023-05-19T18:05:51.903Z,23.20
2023-05-19T18:08:58.146Z,22.60
2023-05-19T18:12:02.473Z,21.80
2023-05-19T18:15:06.130Z,22.60
2023-05-19T18:18:10.723Z,20.80
2023-05-19T18:21:17.855Z,24.60
2023-05-19T18:24:29.076Z,23.60
2023-05-19T18:27:33.568Z,27.20
2023-05-19T18:30:36.729Z,26.40
2023-05-19T18:33:39.796Z,27.50
2023-05-19T18:36:42.746Z,28.50
2023-05-19T18:39:45.751Z,30.40
2023-05-19T18:42:48.625Z,25.90
2023-05-19T18:45:51.595Z,27.80
2023-05-19T18:48:54.789Z,28.80
2023-05-19T18:51:57.786Z,29.40
2023-05-19T18:55:01.304Z,27.90
2023-05-19T18:58:04.798Z,25.70
2023-05-19T19:01:07.730Z,27.70
2023-05-19T19:04:10.685Z,24.70
2023-05-19T19:07:13.633Z,23.70
2023-05-19T19:10:16.693Z,22.40
2023-05-19T19:13:19.740Z,29.70
2023-05-19T19:16:22.829Z,24.40
2023-05-19T19:19:30.034Z,29.80
2023-05-19T19:22:33.264Z,28.00
2023-05-19T19:25:36.174Z,29.60
2023-05-19T19:28:39.194Z,29.70
2023-05-19T19:31:42.439Z,29.10
2023-05-19T19:34:45.544Z,31.90
2023-05-19T19:37:48.737Z,27.30
2023-05-19T19:40:52.766Z,30.80
2023-05-19T19:43:56.154Z,29.90
2023-05-19T19:46:59.693Z,29.70
2023-05-19T19:50:05.750Z,27.80
2023-05-19T19:53:09.056Z,31.50
2023-05-19T19:56:11.995Z,27.10
2023-05-19T19:59:16.041Z,27.40
2023-05-19T20:02:19.083Z,25.10
2023-05-19T20:05:22.331Z,27.40
2023-05-19T20:08:26.018Z,31.00
2023-05-19T20:11:29.130Z,30.20
2023-05-19T20:14:32.286Z,27.10
2023-05-19T20:17:37.231Z,18.50
2023-05-19T20:20:41.269Z,31.90
2023-05-19T20:23:44.384Z,31.10
2023-05-19T20:26:47.569Z,28.90
2023-05-19T20:29:50.641Z,29.30
2023-05-19T20:32:53.618Z,26.30
2023-05-19T20:35:56.560Z,29.60
2023-05-19T20:38:59.860Z,27.80
2023-05-19T20:42:02.754Z,30.00
2023-05-19T20:45:06.434Z,32.10
2023-05-19T20:48:11.247Z,32.20
2023-05-19T20:51:14.422Z,33.60
2023-05-19T20:54:19.863Z,33.30
2023-05-19T20:57:22.827Z,33.10
2023-05-19T21:00:25.859Z,36.90
2023-05-19T21:03:30.611Z,34.30
2023-05-19T21:06:33.970Z,29.00
2023-05-19T21:09:36.911Z,34.40
2023-05-19T21:12:39.879Z,29.40
2023-05-19T21:15:42.768Z,31.90
2023-05-19T21:18:45.706Z,31.20
2023-05-19T21:21:49.596Z,28.30
2023-05-19T21:24:53.202Z,30.80
2023-05-19T21:27:56.207Z,29.30
2023-05-19T21:30:59.253Z,28.50
2023-05-19T21:34:02.962Z,30.50
2023-05-19T21:37:05.861Z,30.30
2023-05-19T21:40:09.845Z,33.70
2023-05-19T21:43:13.000Z,30.30
2023-05-19T21:46:15.876Z,31.10
2023-05-19T21:49:18.854Z,31.90
2023-05-19T21:52:22.059Z,32.20
2023-05-19T21:55:24.961Z,29.20
2023-05-19T21:58:27.859Z,27.80
2023-05-19T22:01:30.869Z,30.80
2023-05-19T22:04:33.794Z,32.20
2023-05-19T22:07:36.797Z,33.20
2023-05-19T22:10:39.668Z,31.10
2023-05-19T22:13:42.628Z,34.10
2023-05-19T22:16:47.598Z,28.70
2023-05-19T22:19:50.690Z,32.90
2023-05-19T22:22:53.656Z,33.30
2023-05-19T22:25:56.504Z,30.70
2023-05-19T22:28:59.372Z,29.90
2023-05-19T22:32:02.363Z,29.50
2023-05-19T22:35:06.688Z,33.40
2023-05-19T22:38:10.671Z,31.70
2023-05-19T22:41:13.807Z,31.70
2023-05-19T22:44:18.202Z,31.50
2023-05-19T22:47:21.795Z,30.90
2023-05-19T22:50:24.854Z,24.00
2023-05-19T22:53:27.702Z,29.10
2023-05-19T22:56:30.550Z,31.70
2023-05-19T22:59:33.766Z,27.40
2023-05-19T23:02:36.816Z,30.70
2023-05-19T23:05:40.228Z,24.30
2023-05-19T23:08:46.736Z,26.30
2023-05-19T23:11:50.236Z,24.90
2023-05-19T23:14:53.133Z,18.40
2023-05-19T23:17:56.076Z,18.00
2023-05-19T23:20:59.041Z,28.60
2023-05-19T23:24:02.097Z,27.40
2023-05-19T23:27:05.712Z,32.20
2023-05-19T23:30:09.123Z,29.50
2023-05-19T23:33:12.060Z,25.80
2023-05-19T23:36:16.706Z,28.00
2023-05-19T23:39:19.711Z,23.80
2023-05-19T23:42:22.613Z,28.00
2023-05-19T23:45:25.611Z,31.30
2023-05-19T23:48:29.489Z,27.90
2023-05-19T23:51:32.349Z,28.50
2023-05-19T23:54:35.411Z,27.90
2023-05-19T23:57:38.375Z,29.40
